sensor_id;sensor_type;location;lat;lon;timestamp;pressure;altitude;pressure_sealevel;temperature;humidity
11038;BME280;5572;49.540;11.932;2022-08-01T00:00:46;98509.47;;;17.96;100.00
11038;BME280;5572;49.540;11.932;2022-08-01T00:03:12;98494.00;;;17.53;100.00
11038;BME280;5572;49.540;11.932;2022-08-01T00:05:40;98517.75;;;17.58;100.00
11038;BME280;5572;49.540;11.932;2022-08-01T00:08:08;98562.03;;;17.93;100.00
11038;BME280;5572;49.540;11.932;2022-08-01T00:10:35;98559.06;;;17.90;100.00
11038;BME280;5572;49.540;11.932;2022-08-01T00:13:01;98532.41;;;17.38;100.00
11038;BME280;5572;49.540;11.932;2022-08-01T00:15:28;98567.44;;;17.70;100.00
11038;BME280;5572;49.540;11.932;2022-08-01T00:17:54;98566.50;;;17.51;100.00
11038;BME280;5572;49.540;11.932;2022-08-01T00:20:21;98604.56;;;17.81;100.00
11038;BME280;5572;49.540;11.932;2022-08-01T00:22:48;98603.91;;;17.60;100.00
11038;BME280;5572;49.540;11.932;2022-08-01T00:25:15;98570.59;;;17.05;100.00
11038;BME280;5572;49.540;11.932;2022-08-01T00:27:41;98591.16;;;17.46;100.00
11038;BME280;5572;49.540;11.932;2022-08-01T00:30:09;98583.13;;;17.16;100.00
11038;BME280;5572;49.540;11.932;2022-08-01T00:32:35;98614.53;;;17.14;100.00
11038;BME280;5572;49.540;11.932;2022-08-01T00:35:02;98647.63;;;17.12;100.00
11038;BME280;5572;49.540;11.932;2022-08-01T00:37:29;98637.56;;;16.98;100.00
11038;BME280;5572;49.540;11.932;2022-08-01T00:39:57;98652.06;;;16.93;100.00
11038;BME280;5572;49.540;11.932;2022-08-01T00:42:24;98654.28;;;16.81;100.00
11038;BME280;5572;49.540;11.932;2022-08-01T00:44:52;98680.78;;;16.86;100.00
11038;BME280;5572;49.540;11.932;2022-08-01T00:47:19;98784.34;;;16.72;100.00
11038;BME280;5572;49.540;11.932;2022-08-01T00:49:46;98788.97;;;16.57;100.00
11038;BME280;5572;49.540;11.932;2022-08-01T00:52:13;98838.41;;;16.60;100.00
11038;BME280;5572;49.540;11.932;2022-08-01T00:54:39;98894.97;;;16.70;100.00
11038;BME280;5572;49.540;11.932;2022-08-01T00:57:07;98927.16;;;16.58;100.00
11038;BME280;5572;49.540;11.932;2022-08-01T00:59:34;98957.72;;;16.55;100.00
11038;BME280;5572;49.540;11.932;2022-08-01T01:02:01;99008.88;;;16.74;100.00
11038;BME280;5572;49.540;11.932;2022-08-01T01:04:28;99031.53;;;16.70;100.00
11038;BME280;5572;49.540;11.932;2022-08-01T01:06:58;99072.13;;;16.51;100.00
11038;BME280;5572;49.540;11.932;2022-08-01T01:09:33;99093.69;;;16.48;100.00
11038;BME280;5572;49.540;11.932;2022-08-01T01:12:12;99138.34;;;16.73;100.00
11038;BME280;5572;49.540;11.932;2022-08-01T01:14:43;99146.19;;;16.60;100.00
11038;BME280;5572;49.540;11.932;2022-08-01T01:17:12;99136.53;;;16.47;100.00
11038;BME280;5572;49.540;11.932;2022-08-01T01:19:45;99198.88;;;16.55;100.00
11038;BME280;5572;49.540;11.932;2022-08-01T01:22:22;99178.53;;;16.37;100.00
11038;BME280;5572;49.540;11.932;2022-08-01T01:25:04;99192.44;;;16.35;100.00
11038;BME280;5572;49.540;11.932;2022-08-01T01:27:42;99181.91;;;16.17;100.00
11038;BME280;5572;49.540;11.932;2022-08-01T01:30:13;99208.19;;;16.28;100.00
11038;BME280;5572;49.540;11.932;2022-08-01T01:32:43;99200.84;;;15.97;100.00
11038;BME280;5572;49.540;11.932;2022-08-01T01:35:15;99215.25;;;15.93;100.00
11038;BME280;5572;49.540;11.932;2022-08-01T01:37:44;99255.03;;;15.89;100.00
11038;BME280;5572;49.540;11.932;2022-08-01T01:40:13;99289.72;;;15.93;100.00
11038;BME280;5572;49.540;11.932;2022-08-01T01:42:42;99321.81;;;15.81;100.00
11038;BME280;5572;49.540;11.932;2022-08-01T01:45:10;99363.91;;;15.90;100.00
11038;BME280;5572;49.540;11.932;2022-08-01T01:47:39;99375.78;;;15.79;100.00
11038;BME280;5572;49.540;11.932;2022-08-01T01:50:08;99399.56;;;15.84;100.00
11038;BME280;5572;49.540;11.932;2022-08-01T01:52:39;99420.13;;;15.91;100.00
11038;BME280;5572;49.540;11.932;2022-08-01T01:55:08;99423.50;;;15.77;100.00
11038;BME280;5572;49.540;11.932;2022-08-01T01:57:40;99449.78;;;15.66;100.00
11038;BME280;5572;49.540;11.932;2022-08-01T02:00:10;99520.81;;;15.93;100.00
11038;BME280;5572;49.540;11.932;2022-08-01T02:02:39;99508.75;;;15.72;100.00
11038;BME280;5572;49.540;11.932;2022-08-01T02:05:10;99514.06;;;15.62;100.00
11038;BME280;5572;49.540;11.932;2022-08-01T02:07:38;99460.78;;;15.93;100.00
11038;BME280;5572;49.540;11.932;2022-08-01T02:10:06;99462.69;;;15.92;100.00
11038;BME280;5572;49.540;11.932;2022-08-01T02:12:36;99460.34;;;15.79;100.00
11038;BME280;5572;49.540;11.932;2022-08-01T02:15:07;99454.47;;;15.71;100.00
11038;BME280;5572;49.540;11.932;2022-08-01T02:17:40;99454.88;;;15.79;100.00
11038;BME280;5572;49.540;11.932;2022-08-01T02:20:08;99428.81;;;15.67;100.00
11038;BME280;5572;49.540;11.932;2022-08-01T02:22:39;99443.25;;;15.67;100.00
11038;BME280;5572;49.540;11.932;2022-08-01T02:25:11;99456.09;;;15.67;100.00
11038;BME280;5572;49.540;11.932;2022-08-01T02:27:42;99470.50;;;15.84;100.00
11038;BME280;5572;49.540;11.932;2022-08-01T02:30:12;99443.16;;;15.62;100.00
11038;BME280;5572;49.540;11.932;2022-08-01T02:32:44;99451.78;;;15.54;100.00
11038;BME280;5572;49.540;11.932;2022-08-01T02:35:18;99466.84;;;15.41;100.00
11038;BME280;5572;49.540;11.932;2022-08-01T02:37:53;99488.81;;;15.51;100.00
11038;BME280;5572;49.540;11.932;2022-08-01T02:40:23;99529.44;;;15.68;100.00
11038;BME280;5572;49.540;11.932;2022-08-01T02:42:54;99550.69;;;15.66;100.00
11038;BME280;5572;49.540;11.932;2022-08-01T02:45:27;99545.81;;;15.52;100.00
11038;BME280;5572;49.540;11.932;2022-08-01T02:48:00;99541.44;;;15.51;100.00
11038;BME280;5572;49.540;11.932;2022-08-01T02:50:29;99554.50;;;15.65;100.00
11038;BME280;5572;49.540;11.932;2022-08-01T02:52:58;99560.53;;;15.67;100.00
11038;BME280;5572;49.540;11.932;2022-08-01T02:55:26;99561.91;;;15.70;100.00
11038;BME280;5572;49.540;11.932;2022-08-01T02:57:56;99544.00;;;15.57;100.00
11038;BME280;5572;49.540;11.932;2022-08-01T03:00:26;99570.09;;;15.53;100.00
11038;BME280;5572;49.540;11.932;2022-08-01T03:02:54;99590.03;;;15.70;100.00
11038;BME280;5572;49.540;11.932;2022-08-01T03:05:25;99599.13;;;15.76;100.00
11038;BME280;5572;49.540;11.932;2022-08-01T03:07:56;99599.94;;;15.76;100.00
11038;BME280;5572;49.540;11.932;2022-08-01T03:10:26;99612.41;;;15.72;100.00
11038;BME280;5572;49.540;11.932;2022-08-01T03:12:54;99588.13;;;15.71;100.00
11038;BME280;5572;49.540;11.932;2022-08-01T03:15:26;99604.63;;;15.48;100.00
11038;BME280;5572;49.540;11.932;2022-08-01T03:18:13;99635.06;;;15.56;100.00
11038;BME280;5572;49.540;11.932;2022-08-01T03:20:54;99758.81;;;15.67;100.00
11038;BME280;5572;49.540;11.932;2022-08-01T03:23:23;99989.06;;;15.71;100.00
11038;BME280;5572;49.540;11.932;2022-08-01T03:25:51;100022.03;;;15.81;100.00
11038;BME280;5572;49.540;11.932;2022-08-01T03:28:21;100132.22;;;15.68;100.00
11038;BME280;5572;49.540;11.932;2022-08-01T03:30:55;100144.78;;;15.69;100.00
11038;BME280;5572;49.540;11.932;2022-08-01T03:33:23;100182.66;;;15.89;100.00
11038;BME280;5572;49.540;11.932;2022-08-01T03:35:54;100187.41;;;15.93;100.00
11038;BME280;5572;49.540;11.932;2022-08-01T03:38:23;100194.16;;;15.91;100.00
11038;BME280;5572;49.540;11.932;2022-08-01T03:40:53;100213.41;;;15.96;100.00
11038;BME280;5572;49.540;11.932;2022-08-01T03:43:26;100193.81;;;15.87;100.00
11038;BME280;5572;49.540;11.932;2022-08-01T03:45:56;100193.81;;;15.87;100.00
11038;BME280;5572;49.540;11.932;2022-08-01T03:48:28;100176.69;;;15.69;100.00
11038;BME280;5572;49.540;11.932;2022-08-01T03:50:58;100236.25;;;15.83;100.00
11038;BME280;5572;49.540;11.932;2022-08-01T03:53:29;100289.31;;;15.87;100.00
11038;BME280;5572;49.540;11.932;2022-08-01T03:55:58;100332.34;;;15.85;100.00
11038;BME280;5572;49.540;11.932;2022-08-01T03:58:27;100338.19;;;15.89;100.00
11038;BME280;5572;49.540;11.932;2022-08-01T04:00:54;100811.19;;;16.07;100.00
11038;BME280;5572;49.540;11.932;2022-08-01T04:03:22;100917.09;;;15.92;100.00
11038;BME280;5572;49.540;11.932;2022-08-01T04:05:49;100958.66;;;16.01;100.00
11038;BME280;5572;49.540;11.932;2022-08-01T04:08:17;100951.38;;;15.88;100.00
11038;BME280;5572;49.540;11.932;2022-08-01T04:10:43;100976.38;;;16.23;100.00
11038;BME280;5572;49.540;11.932;2022-08-01T04:13:10;100961.97;;;16.09;100.00
11038;BME280;5572;49.540;11.932;2022-08-01T04:15:37;100982.13;;;16.08;100.00
11038;BME280;5572;49.540;11.932;2022-08-01T04:18:04;101021.16;;;16.15;100.00
11038;BME280;5572;49.540;11.932;2022-08-01T04:20:32;101041.03;;;16.29;100.00
11038;BME280;5572;49.540;11.932;2022-08-01T04:22:58;101019.94;;;16.05;100.00
11038;BME280;5572;49.540;11.932;2022-08-01T04:25:32;101039.63;;;16.13;100.00
11038;BME280;5572;49.540;11.932;2022-08-01T04:28:01;101048.84;;;16.25;100.00
11038;BME280;5572;49.540;11.932;2022-08-01T04:30:31;101031.41;;;16.20;100.00
11038;BME280;5572;49.540;11.932;2022-08-01T04:33:03;101016.78;;;16.08;100.00
11038;BME280;5572;49.540;11.932;2022-08-01T04:35:32;101042.06;;;16.40;100.00
11038;BME280;5572;49.540;11.932;2022-08-01T06:25:30;96318.19;;;25.91;100.00
11038;BME280;5572;49.540;11.932;2022-08-01T06:27:58;96129.41;;;24.34;100.00
11038;BME280;5572;49.540;11.932;2022-08-01T06:30:25;96170.56;;;22.18;100.00
11038;BME280;5572;49.540;11.932;2022-08-01T06:32:52;96378.69;;;23.45;100.00
11038;BME280;5572;49.540;11.932;2022-08-01T06:35:21;96232.94;;;22.88;100.00
11038;BME280;5572;49.540;11.932;2022-08-01T06:37:47;96315.47;;;23.33;100.00
11038;BME280;5572;49.540;11.932;2022-08-01T06:40:14;96274.84;;;22.71;100.00
11038;BME280;5572;49.540;11.932;2022-08-01T06:42:42;96309.53;;;23.67;100.00
11038;BME280;5572;49.540;11.932;2022-08-01T06:45:15;96245.03;;;22.51;100.00
11038;BME280;5572;49.540;11.932;2022-08-01T06:47:45;96338.66;;;22.99;100.00
11038;BME280;5572;49.540;11.932;2022-08-01T06:50:13;96344.41;;;23.46;100.00
11038;BME280;5572;49.540;11.932;2022-08-01T06:52:40;96312.94;;;23.21;100.00
11038;BME280;5572;49.540;11.932;2022-08-01T06:55:08;96435.59;;;23.27;100.00
11038;BME280;5572;49.540;11.932;2022-08-01T06:57:35;96417.88;;;23.28;100.00
11038;BME280;5572;49.540;11.932;2022-08-01T07:00:04;96421.28;;;22.70;100.00
11038;BME280;5572;49.540;11.932;2022-08-01T07:02:35;96405.25;;;22.75;100.00
11038;BME280;5572;49.540;11.932;2022-08-01T07:05:02;96463.03;;;22.68;100.00
11038;BME280;5572;49.540;11.932;2022-08-01T07:07:29;96479.56;;;23.17;100.00
11038;BME280;5572;49.540;11.932;2022-08-01T07:09:56;96451.53;;;22.89;100.00
11038;BME280;5572;49.540;11.932;2022-08-01T07:12:22;96428.56;;;23.92;100.00
11038;BME280;5572;49.540;11.932;2022-08-01T07:14:49;96355.25;;;23.03;100.00
11038;BME280;5572;49.540;11.932;2022-08-01T07:17:17;96410.09;;;22.37;100.00
11038;BME280;5572;49.540;11.932;2022-08-01T07:19:45;96428.28;;;22.42;100.00
11038;BME280;5572;49.540;11.932;2022-08-01T07:22:12;96498.53;;;22.73;100.00
11038;BME280;5572;49.540;11.932;2022-08-01T07:24:39;96468.34;;;22.36;100.00
11038;BME280;5572;49.540;11.932;2022-08-01T07:27:07;96542.28;;;22.75;100.00
11038;BME280;5572;49.540;11.932;2022-08-01T07:29:33;96528.44;;;23.16;100.00
11038;BME280;5572;49.540;11.932;2022-08-01T07:32:00;96444.81;;;23.38;100.00
11038;BME280;5572;49.540;11.932;2022-08-01T07:34:28;96454.22;;;23.34;100.00
11038;BME280;5572;49.540;11.932;2022-08-01T07:36:54;96456.66;;;22.42;100.00
11038;BME280;5572;49.540;11.932;2022-08-01T07:39:21;96463.56;;;23.26;100.00
11038;BME280;5572;49.540;11.932;2022-08-01T07:41:48;96437.66;;;23.34;100.00
11038;BME280;5572;49.540;11.932;2022-08-01T07:44:15;96518.47;;;23.60;100.00
11038;BME280;5572;49.540;11.932;2022-08-01T07:46:41;96485.34;;;23.34;100.00
11038;BME280;5572;49.540;11.932;2022-08-01T07:49:08;96566.75;;;23.73;100.00
11038;BME280;5572;49.540;11.932;2022-08-01T07:51:36;96572.72;;;23.49;100.00
11038;BME280;5572;49.540;11.932;2022-08-01T07:54:03;96539.47;;;23.42;100.00
11038;BME280;5572;49.540;11.932;2022-08-01T07:56:29;96520.28;;;23.49;100.00
11038;BME280;5572;49.540;11.932;2022-08-01T07:58:56;96511.00;;;23.64;100.00
11038;BME280;5572;49.540;11.932;2022-08-01T08:01:23;96616.47;;;23.50;100.00
11038;BME280;5572;49.540;11.932;2022-08-01T08:03:49;96569.09;;;23.97;100.00
11038;BME280;5572;49.540;11.932;2022-08-01T08:06:16;96576.09;;;23.65;100.00
11038;BME280;5572;49.540;11.932;2022-08-01T08:08:44;96515.88;;;23.45;100.00
11038;BME280;5572;49.540;11.932;2022-08-01T08:11:10;96484.63;;;23.37;100.00
11038;BME280;5572;49.540;11.932;2022-08-01T08:13:37;96513.63;;;23.53;100.00
11038;BME280;5572;49.540;11.932;2022-08-01T08:16:03;96513.97;;;24.40;100.00
11038;BME280;5572;49.540;11.932;2022-08-01T08:18:30;96417.22;;;24.00;100.00
11038;BME280;5572;49.540;11.932;2022-08-01T08:20:56;96352.34;;;23.84;100.00
11038;BME280;5572;49.540;11.932;2022-08-01T08:23:23;96420.81;;;23.71;100.00
11038;BME280;5572;49.540;11.932;2022-08-01T08:26:08;96365.81;;;23.27;100.00
11038;BME280;5572;49.540;11.932;2022-08-01T08:28:35;96457.72;;;23.05;100.00
11038;BME280;5572;49.540;11.932;2022-08-01T08:31:02;96490.03;;;23.85;100.00
11038;BME280;5572;49.540;11.932;2022-08-01T08:33:28;96365.91;;;23.99;100.00
11038;BME280;5572;49.540;11.932;2022-08-01T08:35:55;96430.50;;;24.60;100.00
11038;BME280;5572;49.540;11.932;2022-08-01T08:38:21;96269.19;;;24.42;100.00
11038;BME280;5572;49.540;11.932;2022-08-01T08:40:51;96172.75;;;23.70;100.00
11038;BME280;5572;49.540;11.932;2022-08-01T08:43:20;96223.78;;;25.11;100.00
11038;BME280;5572;49.540;11.932;2022-08-01T08:45:48;96055.31;;;24.57;100.00
11038;BME280;5572;49.540;11.932;2022-08-01T08:48:15;96081.41;;;24.70;100.00
11038;BME280;5572;49.540;11.932;2022-08-01T08:50:43;96038.19;;;24.31;100.00
11038;BME280;5572;49.540;11.932;2022-08-01T08:53:10;96011.88;;;25.90;100.00
11038;BME280;5572;49.540;11.932;2022-08-01T08:55:39;95764.09;;;26.89;100.00
11038;BME280;5572;49.540;11.932;2022-08-01T08:58:09;95774.16;;;24.51;100.00
11038;BME280;5572;49.540;11.932;2022-08-01T09:00:40;95898.94;;;24.74;100.00
11038;BME280;5572;49.540;11.932;2022-08-01T09:03:07;95894.97;;;24.82;100.00
11038;BME280;5572;49.540;11.932;2022-08-01T09:05:33;95915.50;;;24.84;100.00
11038;BME280;5572;49.540;11.932;2022-08-01T09:08:00;95892.16;;;25.30;100.00
11038;BME280;5572;49.540;11.932;2022-08-01T09:10:27;95763.38;;;26.82;100.00
11038;BME280;5572;49.540;11.932;2022-08-01T09:13:05;95724.22;;;25.10;100.00
11038;BME280;5572;49.540;11.932;2022-08-01T09:15:41;95705.81;;;25.51;100.00
11038;BME280;5572;49.540;11.932;2022-08-01T09:18:25;95795.03;;;24.17;100.00
11038;BME280;5572;49.540;11.932;2022-08-01T09:21:07;95939.91;;;24.27;100.00
11038;BME280;5572;49.540;11.932;2022-08-01T09:23:35;95951.72;;;24.17;100.00
11038;BME280;5572;49.540;11.932;2022-08-01T09:26:05;95992.53;;;25.03;100.00
11038;BME280;5572;49.540;11.932;2022-08-01T09:28:32;95883.09;;;24.39;100.00
11038;BME280;5572;49.540;11.932;2022-08-01T09:31:05;95956.63;;;25.14;100.00
11038;BME280;5572;49.540;11.932;2022-08-01T09:33:47;95920.63;;;24.51;100.00
11038;BME280;5572;49.540;11.932;2022-08-01T09:36:14;95949.44;;;24.57;100.00
11038;BME280;5572;49.540;11.932;2022-08-01T09:38:41;95994.50;;;24.57;100.00
11038;BME280;5572;49.540;11.932;2022-08-01T09:41:08;95913.13;;;25.28;100.00
11038;BME280;5572;49.540;11.932;2022-08-01T09:43:36;95848.69;;;25.24;100.00
11038;BME280;5572;49.540;11.932;2022-08-01T09:46:08;95644.00;;;26.18;100.00
11038;BME280;5572;49.540;11.932;2022-08-01T09:48:36;95730.59;;;25.82;100.00
11038;BME280;5572;49.540;11.932;2022-08-01T09:51:05;95806.91;;;25.87;100.00
11038;BME280;5572;49.540;11.932;2022-08-01T09:53:45;95738.94;;;27.10;100.00
11038;BME280;5572;49.540;11.932;2022-08-01T09:56:12;95496.16;;;28.29;100.00
11038;BME280;5572;49.540;11.932;2022-08-01T09:58:49;95254.34;;;27.74;100.00
11038;BME280;5572;49.540;11.932;2022-08-01T10:01:19;95145.03;;;26.06;100.00
11038;BME280;5572;49.540;11.932;2022-08-01T10:03:46;95307.00;;;25.38;100.00
11038;BME280;5572;49.540;11.932;2022-08-01T10:06:19;95383.50;;;25.19;100.00
11038;BME280;5572;49.540;11.932;2022-08-01T10:08:47;95297.53;;;26.94;100.00
11038;BME280;5572;49.540;11.932;2022-08-01T10:11:14;95049.44;;;26.95;100.00
11038;BME280;5572;49.540;11.932;2022-08-01T10:13:40;94951.16;;;27.12;100.00
11038;BME280;5572;49.540;11.932;2022-08-01T10:16:08;95031.81;;;26.86;100.00
11038;BME280;5572;49.540;11.932;2022-08-01T10:18:38;94996.44;;;26.74;100.00
11038;BME280;5572;49.540;11.932;2022-08-01T10:21:07;94891.69;;;27.13;100.00
11038;BME280;5572;49.540;11.932;2022-08-01T10:23:35;95051.50;;;27.10;100.00
11038;BME280;5572;49.540;11.932;2022-08-01T10:26:02;94808.28;;;27.04;100.00
11038;BME280;5572;49.540;11.932;2022-08-01T10:28:31;94820.38;;;27.95;100.00
11038;BME280;5572;49.540;11.932;2022-08-01T10:31:01;94744.59;;;26.05;100.00
11038;BME280;5572;49.540;11.932;2022-08-01T10:33:28;94958.66;;;26.96;100.00
11038;BME280;5572;49.540;11.932;2022-08-01T10:35:56;94885.72;;;27.14;100.00
11038;BME280;5572;49.540;11.932;2022-08-01T10:38:23;94996.25;;;26.45;100.00
11038;BME280;5572;49.540;11.932;2022-08-01T10:40:50;94924.44;;;27.94;100.00
11038;BME280;5572;49.540;11.932;2022-08-01T10:43:18;94802.16;;;27.25;100.00
11038;BME280;5572;49.540;11.932;2022-08-01T10:45:45;94774.88;;;29.13;100.00
11038;BME280;5572;49.540;11.932;2022-08-01T10:48:14;94556.38;;;29.48;100.00
11038;BME280;5572;49.540;11.932;2022-08-01T10:50:44;94477.53;;;30.85;100.00
11038;BME280;5572;49.540;11.932;2022-08-01T10:53:15;94459.63;;;28.70;100.00
11038;BME280;5572;49.540;11.932;2022-08-01T10:55:50;94566.28;;;27.50;100.00
11038;BME280;5572;49.540;11.932;2022-08-01T10:58:22;94649.19;;;28.81;100.00
11038;BME280;5572;49.540;11.932;2022-08-01T11:00:48;94709.91;;;28.49;100.00
11038;BME280;5572;49.540;11.932;2022-08-01T11:03:32;94619.19;;;29.19;100.00
11038;BME280;5572;49.540;11.932;2022-08-01T11:06:01;94621.00;;;27.62;100.00
11038;BME280;5572;49.540;11.932;2022-08-01T11:08:35;94772.28;;;27.86;100.00
11038;BME280;5572;49.540;11.932;2022-08-01T11:11:03;94688.78;;;28.39;100.00
11038;BME280;5572;49.540;11.932;2022-08-01T11:14:00;94541.75;;;29.66;100.00
11038;BME280;5572;49.540;11.932;2022-08-01T11:16:30;94399.34;;;28.67;100.00
11038;BME280;5572;49.540;11.932;2022-08-01T11:18:58;94442.22;;;29.75;100.00
11038;BME280;5572;49.540;11.932;2022-08-01T11:21:58;94438.25;;;28.15;100.00
11038;BME280;5572;49.540;11.932;2022-08-01T11:24:56;94497.13;;;27.30;100.00
11038;BME280;5572;49.540;11.932;2022-08-01T11:27:28;94577.63;;;26.90;100.00
11038;BME280;5572;49.540;11.932;2022-08-01T11:30:23;94603.25;;;27.47;100.00
11038;BME280;5572;49.540;11.932;2022-08-01T11:32:52;94501.81;;;28.47;100.00
11038;BME280;5572;49.540;11.932;2022-08-01T11:35:19;94489.94;;;27.79;100.00
11038;BME280;5572;49.540;11.932;2022-08-01T11:37:49;94620.06;;;27.03;100.00
11038;BME280;5572;49.540;11.932;2022-08-01T11:40:22;94519.75;;;27.66;100.00
11038;BME280;5572;49.540;11.932;2022-08-01T11:42:50;94574.44;;;28.71;100.00
11038;BME280;5572;49.540;11.932;2022-08-01T11:45:17;94473.81;;;27.87;100.00
11038;BME280;5572;49.540;11.932;2022-08-01T11:47:45;94569.59;;;27.45;100.00
11038;BME280;5572;49.540;11.932;2022-08-01T11:50:32;94668.44;;;27.42;100.00
11038;BME280;5572;49.540;11.932;2022-08-01T11:53:01;94655.34;;;26.74;100.00
11038;BME280;5572;49.540;11.932;2022-08-01T11:55:29;94641.88;;;27.29;100.00
11038;BME280;5572;49.540;11.932;2022-08-01T11:57:59;94423.22;;;29.25;100.00
11038;BME280;5572;49.540;11.932;2022-08-01T12:00:26;94447.88;;;27.68;100.00
11038;BME280;5572;49.540;11.932;2022-08-01T12:02:57;94567.59;;;27.58;100.00
11038;BME280;5572;49.540;11.932;2022-08-01T12:05:25;94466.63;;;28.53;100.00
11038;BME280;5572;49.540;11.932;2022-08-01T12:07:53;94449.19;;;29.13;100.00
11038;BME280;5572;49.540;11.932;2022-08-01T12:10:21;94507.03;;;27.90;100.00
11038;BME280;5572;49.540;11.932;2022-08-01T12:12:51;94531.50;;;28.16;100.00
11038;BME280;5572;49.540;11.932;2022-08-01T12:15:19;94450.69;;;29.05;100.00
11038;BME280;5572;49.540;11.932;2022-08-01T12:17:48;94391.84;;;28.46;100.00
11038;BME280;5572;49.540;11.932;2022-08-01T12:20:20;94315.09;;;28.97;100.00
11038;BME280;5572;49.540;11.932;2022-08-01T12:22:47;94444.44;;;28.62;100.00
11038;BME280;5572;49.540;11.932;2022-08-01T12:25:15;94421.09;;;28.17;100.00
11038;BME280;5572;49.540;11.932;2022-08-01T12:27:43;94399.41;;;28.24;100.00
11038;BME280;5572;49.540;11.932;2022-08-01T12:30:14;94374.34;;;27.60;100.00
11038;BME280;5572;49.540;11.932;2022-08-01T12:32:42;94444.69;;;27.45;100.00
11038;BME280;5572;49.540;11.932;2022-08-01T12:35:11;94518.63;;;27.26;100.00
11038;BME280;5572;49.540;11.932;2022-08-01T12:37:40;94607.41;;;26.73;100.00
11038;BME280;5572;49.540;11.932;2022-08-01T12:40:11;94658.13;;;27.02;100.00
11038;BME280;5572;49.540;11.932;2022-08-01T12:42:40;94633.44;;;26.92;100.00
11038;BME280;5572;49.540;11.932;2022-08-01T12:45:08;94704.06;;;26.59;100.00
11038;BME280;5572;49.540;11.932;2022-08-01T12:47:37;94812.56;;;26.45;100.00
11038;BME280;5572;49.540;11.932;2022-08-01T12:50:06;94895.81;;;26.38;100.00
11038;BME280;5572;49.540;11.932;2022-08-01T12:52:33;94894.63;;;26.90;100.00
11038;BME280;5572;49.540;11.932;2022-08-01T12:55:07;94895.84;;;26.89;100.00
11038;BME280;5572;49.540;11.932;2022-08-01T12:57:35;94884.19;;;26.94;100.00
11038;BME280;5572;49.540;11.932;2022-08-01T13:00:07;94997.84;;;27.65;100.00
11038;BME280;5572;49.540;11.932;2022-08-01T13:02:34;94825.59;;;28.84;100.00
11038;BME280;5572;49.540;11.932;2022-08-01T13:05:03;94656.19;;;28.85;100.00
11038;BME280;5572;49.540;11.932;2022-08-01T13:07:42;94636.66;;;27.31;100.00
11038;BME280;5572;49.540;11.932;2022-08-01T13:10:09;94678.63;;;27.45;100.00
11038;BME280;5572;49.540;11.932;2022-08-01T13:12:38;94827.34;;;27.18;100.00
11038;BME280;5572;49.540;11.932;2022-08-01T13:15:20;94669.38;;;27.77;100.00
11038;BME280;5572;49.540;11.932;2022-08-01T13:17:47;94640.09;;;28.34;100.00
11038;BME280;5572;49.540;11.932;2022-08-01T13:20:29;94641.56;;;28.26;100.00
11038;BME280;5572;49.540;11.932;2022-08-01T13:23:13;94442.66;;;28.25;100.00
11038;BME280;5572;49.540;11.932;2022-08-01T13:25:51;94538.38;;;28.58;100.00
11038;BME280;5572;49.540;11.932;2022-08-01T13:28:20;94789.56;;;27.77;100.00
11038;BME280;5572;49.540;11.932;2022-08-01T13:30:55;94687.16;;;28.75;100.00
11038;BME280;5572;49.540;11.932;2022-08-01T13:33:22;94464.06;;;29.19;100.00
11038;BME280;5572;49.540;11.932;2022-08-01T13:35:51;94371.09;;;29.08;100.00
11038;BME280;5572;49.540;11.932;2022-08-01T13:38:18;94695.16;;;27.90;100.00
11038;BME280;5572;49.540;11.932;2022-08-01T13:40:45;94832.06;;;27.62;100.00
11038;BME280;5572;49.540;11.932;2022-08-01T13:43:12;94908.50;;;27.82;100.00
11038;BME280;5572;49.540;11.932;2022-08-01T13:45:40;94791.94;;;27.79;100.00
11038;BME280;5572;49.540;11.932;2022-08-01T13:48:06;94809.19;;;28.11;100.00
11038;BME280;5572;49.540;11.932;2022-08-01T13:50:33;94950.88;;;27.70;100.00
11038;BME280;5572;49.540;11.932;2022-08-01T13:53:00;94965.78;;;27.60;100.00
11038;BME280;5572;49.540;11.932;2022-08-01T13:55:27;95067.56;;;27.19;100.00
11038;BME280;5572;49.540;11.932;2022-08-01T13:57:53;95137.72;;;27.00;100.00
11038;BME280;5572;49.540;11.932;2022-08-01T14:00:20;95166.88;;;26.89;100.00
11038;BME280;5572;49.540;11.932;2022-08-01T14:02:47;94947.44;;;27.94;100.00
11038;BME280;5572;49.540;11.932;2022-08-01T14:05:13;94912.22;;;27.15;100.00
11038;BME280;5572;49.540;11.932;2022-08-01T14:07:40;94969.44;;;28.71;100.00
11038;BME280;5572;49.540;11.932;2022-08-01T14:10:09;94970.97;;;28.47;100.00
11038;BME280;5572;49.540;11.932;2022-08-01T14:12:35;94865.06;;;28.41;100.00
11038;BME280;5572;49.540;11.932;2022-08-01T14:15:02;94844.75;;;29.28;100.00
11038;BME280;5572;49.540;11.932;2022-08-01T14:17:29;94862.19;;;28.45;100.00
11038;BME280;5572;49.540;11.932;2022-08-01T14:19:55;94797.09;;;28.42;100.00
11038;BME280;5572;49.540;11.932;2022-08-01T14:22:24;94574.13;;;28.90;100.00
11038;BME280;5572;49.540;11.932;2022-08-01T14:24:51;94711.72;;;28.43;100.00
11038;BME280;5572;49.540;11.932;2022-08-01T14:27:19;94382.31;;;29.53;100.00
11038;BME280;5572;49.540;11.932;2022-08-01T14:29:45;94461.84;;;28.32;100.00
11038;BME280;5572;49.540;11.932;2022-08-01T14:32:12;94464.53;;;27.68;100.00
11038;BME280;5572;49.540;11.932;2022-08-01T14:34:38;94625.47;;;27.96;100.00
11038;BME280;5572;49.540;11.932;2022-08-01T14:37:05;94750.03;;;27.04;100.00
11038;BME280;5572;49.540;11.932;2022-08-01T14:39:32;94809.72;;;27.24;100.00
11038;BME280;5572;49.540;11.932;2022-08-01T14:41:58;95050.28;;;27.11;100.00
11038;BME280;5572;49.540;11.932;2022-08-01T14:44:26;94763.41;;;28.15;100.00
11038;BME280;5572;49.540;11.932;2022-08-01T14:46:52;94673.25;;;27.92;100.00
11038;BME280;5572;49.540;11.932;2022-08-01T14:49:19;94616.44;;;29.49;100.00